createdAt,value
2018-08-20T00:02:59.939Z,25.80
2018-08-20T00:08:20.723Z,25.80
2018-08-20T00:14:11.416Z,25.80
2018-08-20T00:26:14.119Z,25.80
2018-08-20T00:31:41.594Z,25.80
2018-08-20T00:37:14.256Z,25.80
2018-08-20T00:43:04.233Z,25.80
2018-08-20T00:48:36.014Z,25.80
2018-08-20T00:54:26.415Z,25.80
2018-08-20T01:00:06.231Z,25.70
2018-08-20T01:05:47.708Z,25.70
2018-08-20T01:11:08.627Z,25.70
2018-08-20T01:16:29.216Z,25.70
2018-08-20T01:21:49.733Z,25.70
2018-08-20T01:27:10.609Z,25.70
2018-08-20T01:32:31.147Z,25.70
2018-08-20T01:37:51.675Z,25.70
2018-08-20T01:43:12.195Z,25.70
2018-08-20T01:48:32.923Z,25.60
2018-08-20T01:53:53.537Z,25.60
2018-08-20T01:59:14.064Z,25.60
2018-08-20T02:04:34.688Z,25.60
2018-08-20T02:09:55.328Z,25.60
2018-08-20T02:15:15.991Z,25.60
2018-08-20T02:20:36.506Z,25.60
2018-08-20T02:25:57.034Z,25.60
2018-08-20T02:31:17.547Z,25.60
2018-08-20T02:36:38.599Z,25.60
2018-08-20T02:41:59.412Z,25.50
2018-08-20T02:47:20.007Z,25.50
2018-08-20T02:52:40.832Z,25.50
2018-08-20T02:58:01.456Z,25.50
2018-08-20T03:03:22.028Z,25.50
2018-08-20T03:08:42.598Z,25.50
2018-08-20T03:14:03.118Z,25.50
2018-08-20T03:19:23.742Z,25.50
2018-08-20T03:24:44.346Z,25.50
2018-08-20T03:30:05.560Z,25.50
2018-08-20T03:35:26.121Z,25.50
2018-08-20T03:40:46.740Z,25.50
2018-08-20T03:46:07.388Z,25.40
2018-08-20T03:51:27.984Z,25.40
2018-08-20T03:56:48.505Z,25.40
2018-08-20T04:02:09.535Z,25.40
2018-08-20T04:07:30.055Z,25.40
2018-08-20T04:12:50.575Z,25.40
2018-08-20T04:18:11.153Z,25.40
2018-08-20T04:23:31.845Z,25.40
2018-08-20T04:28:52.365Z,25.40
2018-08-20T04:34:12.926Z,25.30
2018-08-20T04:39:33.485Z,25.30
2018-08-20T04:44:54.056Z,25.30
2018-08-20T04:50:14.820Z,25.30
2018-08-20T04:55:35.266Z,25.30
2018-08-20T05:00:55.803Z,25.30
2018-08-20T05:06:16.489Z,25.30
2018-08-20T05:11:37.029Z,25.30
2018-08-20T05:16:57.553Z,25.30
2018-08-20T05:22:18.218Z,25.30
2018-08-20T05:27:38.774Z,25.30
2018-08-20T05:32:59.318Z,25.20
2018-08-20T05:38:20.019Z,25.20
2018-08-20T05:43:40.539Z,25.30
2018-08-20T05:49:01.111Z,25.20
2018-08-20T05:54:21.667Z,25.20
2018-08-20T05:59:42.223Z,25.20
2018-08-20T06:05:02.825Z,25.20
2018-08-20T06:10:23.364Z,25.20
2018-08-20T06:15:44.099Z,25.20
2018-08-20T06:21:04.858Z,25.20
2018-08-20T06:26:25.478Z,25.20
2018-08-20T06:31:46.054Z,25.20
2018-08-20T06:37:06.658Z,25.20
2018-08-20T06:42:27.199Z,25.10
2018-08-20T06:47:48.161Z,25.20
2018-08-20T06:53:09.345Z,25.20
2018-08-20T06:58:29.966Z,25.10
2018-08-20T07:03:50.537Z,25.20
2018-08-20T07:09:11.106Z,25.10
2018-08-20T07:14:31.654Z,25.10
2018-08-20T07:19:52.176Z,25.10
2018-08-20T07:25:12.742Z,25.10
2018-08-20T07:30:33.397Z,25.20
2018-08-20T07:35:53.998Z,25.10
2018-08-20T07:41:16.436Z,25.20
2018-08-20T07:46:36.986Z,25.20
2018-08-20T07:51:57.593Z,25.20
2018-08-20T07:57:18.141Z,25.20
2018-08-20T08:02:39.888Z,25.20
2018-08-20T08:08:00.440Z,25.20
2018-08-20T08:13:21.090Z,25.20
2018-08-20T08:18:41.674Z,25.20
2018-08-20T08:24:03.301Z,25.20
2018-08-20T08:29:24.011Z,25.30
2018-08-20T08:34:44.636Z,25.30
2018-08-20T08:40:05.575Z,25.30
2018-08-20T08:45:26.508Z,25.30
2018-08-20T08:50:47.144Z,25.30
2018-08-20T08:56:07.719Z,25.30
2018-08-20T09:01:28.403Z,25.40
2018-08-20T09:06:48.958Z,25.40
2018-08-20T09:12:10.000Z,25.40
2018-08-20T09:17:30.802Z,25.50
2018-08-20T09:22:51.350Z,25.50
2018-08-20T09:28:12.147Z,25.50
2018-08-20T09:33:32.855Z,25.60
2018-08-20T09:38:54.026Z,25.60
2018-08-20T09:44:14.885Z,25.60
2018-08-20T09:49:35.427Z,25.70
2018-08-20T09:54:55.954Z,25.80
2018-08-20T10:00:22.292Z,25.90
2018-08-20T10:05:43.010Z,26.00
2018-08-20T10:11:03.704Z,26.10
2018-08-20T10:16:24.392Z,26.30
2018-08-20T10:21:45.215Z,26.40
2018-08-20T10:27:05.827Z,26.50
2018-08-20T10:32:26.652Z,26.60
2018-08-20T10:37:47.619Z,26.70
2018-08-20T10:43:08.143Z,26.80
2018-08-20T10:48:29.044Z,26.90
2018-08-20T10:53:49.841Z,27.00
2018-08-20T10:59:11.025Z,27.10
2018-08-20T11:04:31.927Z,27.20
2018-08-20T11:09:53.207Z,27.30
2018-08-20T11:15:14.423Z,27.30
2018-08-20T11:20:35.062Z,27.40
2018-08-20T11:25:55.615Z,27.50
2018-08-20T11:31:16.211Z,27.60
2018-08-20T11:36:37.113Z,27.70
2018-08-20T11:41:57.716Z,27.80
2018-08-20T11:47:18.249Z,27.80
2018-08-20T11:52:39.519Z,27.90
2018-08-20T11:58:00.099Z,28.00
2018-08-20T12:03:20.731Z,28.10
2018-08-20T12:08:41.274Z,28.10
2018-08-20T12:14:01.956Z,28.10
2018-08-20T12:19:22.537Z,28.10
2018-08-20T12:24:43.097Z,28.20
2018-08-20T12:30:03.719Z,28.20
2018-08-20T12:35:24.374Z,28.30
2018-08-20T12:40:44.966Z,28.30
2018-08-20T12:46:25.277Z,28.40
2018-08-20T12:51:45.813Z,28.40
2018-08-20T12:57:09.423Z,28.40
2018-08-20T13:02:30.079Z,28.40
2018-08-20T13:07:50.598Z,28.40
2018-08-20T13:13:11.155Z,28.40
2018-08-20T13:18:32.293Z,28.40
2018-08-20T13:23:52.898Z,28.30
2018-08-20T13:29:13.607Z,28.40
2018-08-20T13:34:34.121Z,28.40
2018-08-20T13:39:54.644Z,28.40
2018-08-20T13:45:15.304Z,28.40
2018-08-20T13:50:36.123Z,28.40
2018-08-20T13:55:56.758Z,28.40
2018-08-20T14:01:17.384Z,28.40
2018-08-20T14:06:38.020Z,28.40
2018-08-20T14:11:58.687Z,28.40
2018-08-20T14:17:19.307Z,28.40
2018-08-20T14:22:40.097Z,28.50
2018-08-20T14:28:00.712Z,28.50
2018-08-20T14:33:21.250Z,28.50
2018-08-20T14:38:42.159Z,28.50
2018-08-20T14:44:02.750Z,28.50
2018-08-20T14:49:23.664Z,28.50
2018-08-20T14:54:44.239Z,28.50
2018-08-20T15:00:05.928Z,28.50
2018-08-20T15:05:26.543Z,28.40
2018-08-20T15:10:47.546Z,28.40
2018-08-20T15:16:08.359Z,28.30
2018-08-20T15:21:29.469Z,28.30
2018-08-20T15:26:50.598Z,28.30
2018-08-20T15:32:11.245Z,28.20
2018-08-20T15:37:31.864Z,28.20
2018-08-20T15:42:52.638Z,28.20
2018-08-20T15:48:14.222Z,28.10
2018-08-20T15:53:35.195Z,28.10
2018-08-20T15:58:55.813Z,28.10
2018-08-20T16:04:16.359Z,28.10
2018-08-20T16:09:37.695Z,28.00
2018-08-20T16:14:59.894Z,28.00
2018-08-20T16:20:20.892Z,28.00
2018-08-20T16:25:41.547Z,27.90
2018-08-20T16:31:02.166Z,27.90
2018-08-20T16:36:23.392Z,27.90
2018-08-20T16:41:46.398Z,27.90
2018-08-20T16:47:09.312Z,27.90
2018-08-20T16:52:32.106Z,27.90
2018-08-20T16:57:55.379Z,27.80
2018-08-20T17:03:18.078Z,27.80
2018-08-20T17:08:40.851Z,27.80
2018-08-20T17:14:01.834Z,27.80
2018-08-20T17:19:22.412Z,27.80
2018-08-20T17:24:44.044Z,27.80
2018-08-20T17:30:05.871Z,27.80
2018-08-20T17:35:26.628Z,27.80
2018-08-20T17:40:48.026Z,27.80
2018-08-20T17:46:10.081Z,27.80
2018-08-20T17:51:32.687Z,27.80
2018-08-20T17:56:53.425Z,27.80
2018-08-20T18:02:19.302Z,27.80
2018-08-20T18:07:40.850Z,27.80
2018-08-20T18:13:01.454Z,27.80
2018-08-20T18:18:21.990Z,27.80
2018-08-20T18:23:42.780Z,27.80
2018-08-20T18:29:03.391Z,27.80
2018-08-20T18:34:24.213Z,27.80
2018-08-20T18:39:49.218Z,27.80
2018-08-20T18:45:10.414Z,27.80
2018-08-20T18:50:31.300Z,27.80
2018-08-20T18:56:03.435Z,27.80
2018-08-20T19:01:24.352Z,27.80
2018-08-20T19:06:45.367Z,27.80
2018-08-20T19:12:06.657Z,27.80
2018-08-20T19:17:29.016Z,27.80
2018-08-20T19:22:49.861Z,27.80
2018-08-20T19:28:14.991Z,27.80
2018-08-20T19:33:35.694Z,27.80
2018-08-20T19:38:56.594Z,27.80
2018-08-20T19:44:20.241Z,27.80
2018-08-20T19:49:41.225Z,27.80
2018-08-20T19:55:07.352Z,27.80
2018-08-20T20:00:28.339Z,27.80
2018-08-20T20:05:48.993Z,27.80
2018-08-20T20:11:43.322Z,27.80
2018-08-20T20:17:03.878Z,27.80
2018-08-20T20:22:24.520Z,27.80
2018-08-20T20:27:45.536Z,27.80
2018-08-20T20:33:06.354Z,27.70
2018-08-20T20:38:27.753Z,27.80
2018-08-20T20:43:49.605Z,27.70
2018-08-20T20:49:10.335Z,27.70
2018-08-20T20:54:32.003Z,27.70
2018-08-20T20:59:59.143Z,27.70
2018-08-20T21:05:21.661Z,27.70
2018-08-20T21:10:47.890Z,27.70
2018-08-20T21:16:10.181Z,27.60
2018-08-20T21:21:31.412Z,27.60
2018-08-20T21:26:52.124Z,27.60
2018-08-20T21:32:12.708Z,27.60
2018-08-20T21:37:33.547Z,27.50
2018-08-20T21:42:54.231Z,27.50
2018-08-20T21:48:16.446Z,27.50
2018-08-20T21:53:43.949Z,27.50
2018-08-20T21:59:05.453Z,27.50
2018-08-20T22:04:26.446Z,27.50
2018-08-20T22:09:47.212Z,27.50
2018-08-20T22:15:09.126Z,27.50
2018-08-20T22:20:29.723Z,27.50
2018-08-20T22:25:54.322Z,27.50
2018-08-20T22:31:14.883Z,27.50
2018-08-20T22:36:35.411Z,27.40
2018-08-20T22:41:55.962Z,27.50
2018-08-20T22:47:16.910Z,27.50
2018-08-20T22:52:37.520Z,27.40
2018-08-20T22:58:17.563Z,27.40
2018-08-20T23:03:38.264Z,27.40
2018-08-20T23:08:58.934Z,27.40
2018-08-20T23:14:19.454Z,27.40
2018-08-20T23:19:40.175Z,27.30
2018-08-20T23:25:00.767Z,27.30
2018-08-20T23:30:21.654Z,27.30
2018-08-20T23:35:42.178Z,27.30
2018-08-20T23:41:02.879Z,27.20
2018-08-20T23:46:32.510Z,27.20
2018-08-20T23:51:56.118Z,27.20
2018-08-20T23:57:18.618Z,27.10
